AGROMETEOROLOŠKI PORTAL

vinorodna pokrajina

Temelj dobrega kmetovanja

Pregled podatkov za lokacijo Purisima, meteorološka postaja 513655

Pregled senzorjev na lokaciji

ID Ime Zadnja
vrednost
Datum in čas
meritve
(lokalni čas)
Tip
senzorja
6595 Omočenost lista (1,5 m) (U) 0 U 30.9.2022 11:30 A730WET
6594 Padavine (mm) 0 mm 30.9.2022 11:30 Generic 0.2 mm
6589 Relativna zračna vlaga (2 m) (%RH) 78 %RH 30.9.2022 11:30 50YA
6596 Temperatura tal (30 cm) (°C) 17,9 °C 30.9.2022 11:30 ST2
6588 Temperatura (2 m) (°C) 18,4 °C 30.9.2022 11:30 50YA

Pregled podatkov zadnjih 24 ur

Zap.
št.
Datum in čas
(lokalni čas)
Purisima
Omočenost
lista
(1,5
m)
Padavine Relativna
zračna
vlaga
(2
m)
Temperatura
tal
(30
cm)
Temperatura
(2
m)
1 30.9.2022 11:30 0 0 78,3 17,9 18,4
2 30.9.2022 11:00 0 0 79,3 18,1 18,1
3 30.9.2022 10:30 0 0 79,8 17,9 18,1
4 30.9.2022 10:00 1 0 82,3 18,1 17,7
5 30.9.2022 09:30 8 0 84,1 18 16,8
6 30.9.2022 09:00 10 0 85,2 18 16,1
7 30.9.2022 08:30 3 0 86,3 18,1 15,3
8 30.9.2022 08:00 3 0 87,8 18,2 14,5
9 30.9.2022 07:30 3 0 90,6 18,4 13,8
10 30.9.2022 07:00 3 0 94,1 18,4 13,6
11 30.9.2022 06:30 3 0 95,5 18,3 13,5
12 30.9.2022 06:00 8 0 96,3 18,5 13,6
13 30.9.2022 05:30 10 0 96,9 18,5 13,6
14 30.9.2022 05:00 9 6,4 96,1 18,4 13,5
15 30.9.2022 04:30 10 5,2 94,8 18,5 13,4
16 30.9.2022 04:00 10 9,8 92,4 18,6 13,5
17 30.9.2022 03:30 4 0,2 85,4 18,7 14,3
18 30.9.2022 03:00 10 0,6 88,5 18,6 14,1
19 30.9.2022 02:30 6 3,4 84,3 18,4 17
20 30.9.2022 02:00 0 0 80,6 18,5 17,6
21 30.9.2022 01:30 0 0 79,6 18,7 17,6
22 30.9.2022 01:00 0 0 78,8 18,6 17,4
23 30.9.2022 00:30 0 0 77,9 18,5 17,2
24 30.9.2022 00:00 0 0 76,6 18,7 17,2
25 29.9.2022 23:30 0 0 73,4 18,6 17,5
26 29.9.2022 23:00 0 0 74,2 18,4 17,3
27 29.9.2022 22:30 0 0 75,3 18,7 17,4
28 29.9.2022 22:00 0 0 75,7 18,5 17,2
29 29.9.2022 21:30 0 0 76,1 18,5 17,3
30 29.9.2022 21:00 0 0 74,2 18,5 17,2
31 29.9.2022 20:30 0 0 74,2 18,6 16,8
32 29.9.2022 20:00 0 0 71,5 18,5 17
33 29.9.2022 19:30 0 0 72,8 18,5 16,7
34 29.9.2022 19:00 0 0 69,6 18,4 17
35 29.9.2022 18:30 0 0 66,8 18,4 17,9
36 29.9.2022 18:00 0 0 64,5 18,2 20,7
37 29.9.2022 17:30 0 0 62 18,1 21,6
38 29.9.2022 17:00 0 0 57,4 18,3 22,6
39 29.9.2022 16:30 0 0 58,3 18 23
40 29.9.2022 16:00 0 0 57,6 17,9 23,3
41 29.9.2022 15:30 0 0 54,2 17,9 23,3
42 29.9.2022 15:00 0 0 54,7 18,1 23,1
43 29.9.2022 14:30 0 0 57,2 17,9 23
44 29.9.2022 14:00 0 0 61,1 18 21,4
45 29.9.2022 13:30 0 0 59,7 17,9 21,7
46 29.9.2022 13:00 0 0 62,2 18 21,1